createdAt,value
2022-12-27T00:00:53.750Z,89.44
2022-12-27T00:02:15.648Z,89.22
2022-12-27T00:03:37.340Z,88.57
2022-12-27T00:04:59.332Z,89.03
2022-12-27T00:06:23.215Z,88.95
2022-12-27T00:07:45.449Z,88.65
2022-12-27T00:09:07.572Z,88.86
2022-12-27T00:10:29.247Z,88.94
2022-12-27T00:11:56.287Z,88.36
2022-12-27T00:13:21.657Z,88.83
2022-12-27T00:14:43.411Z,88.60
2022-12-27T00:16:07.065Z,88.48
2022-12-27T00:17:29.138Z,88.64
2022-12-27T00:18:52.448Z,88.92
2022-12-27T00:20:14.001Z,88.81
2022-12-27T00:21:36.732Z,89.04
2022-12-27T00:23:01.150Z,88.07
2022-12-27T00:24:23.132Z,88.09
2022-12-27T00:25:44.814Z,88.87
2022-12-27T00:27:06.636Z,89.13
2022-12-27T00:28:31.606Z,89.33
2022-12-27T00:29:53.473Z,88.82
2022-12-27T00:31:16.596Z,89.15
2022-12-27T00:32:38.210Z,89.07
2022-12-27T00:34:02.361Z,89.24
2022-12-27T00:35:24.255Z,88.73
2022-12-27T00:36:46.203Z,88.74
2022-12-27T00:38:08.054Z,89.17
2022-12-27T00:39:29.961Z,88.70
2022-12-27T00:40:51.931Z,88.86
2022-12-27T00:42:13.440Z,88.53
2022-12-27T00:43:35.859Z,88.92
2022-12-27T00:44:58.954Z,89.17
2022-12-27T00:46:23.148Z,89.31
2022-12-27T00:47:44.953Z,89.11
2022-12-27T00:49:07.001Z,89.44
2022-12-27T00:50:28.765Z,88.97
2022-12-27T00:51:50.844Z,89.15
2022-12-27T00:53:12.857Z,89.49
2022-12-27T00:54:35.014Z,89.72
2022-12-27T00:55:57.164Z,89.10
2022-12-27T00:57:19.256Z,89.24
2022-12-27T00:58:41.274Z,89.92
2022-12-27T01:00:09.826Z,90.07
2022-12-27T01:01:35.203Z,90.28
2022-12-27T01:02:57.631Z,89.57
2022-12-27T01:04:19.443Z,89.85
2022-12-27T01:05:41.568Z,89.84
2022-12-27T01:07:03.336Z,89.82
2022-12-27T01:08:25.345Z,89.24
2022-12-27T01:09:47.322Z,88.84
2022-12-27T01:11:10.265Z,88.79
2022-12-27T01:12:31.811Z,89.46
2022-12-27T01:13:56.587Z,89.49
2022-12-27T01:15:18.212Z,89.59
2022-12-27T01:16:40.825Z,89.23
2022-12-27T01:18:02.908Z,88.88
2022-12-27T01:19:24.925Z,89.29
2022-12-27T01:20:46.895Z,89.28
2022-12-27T01:22:09.041Z,89.34
2022-12-27T01:23:32.452Z,89.46
2022-12-27T01:24:54.369Z,88.79
2022-12-27T01:26:19.470Z,89.18
2022-12-27T01:27:41.573Z,89.38
2022-12-27T01:29:03.612Z,88.61
2022-12-27T01:30:25.212Z,88.54
2022-12-27T01:32:05.957Z,89.10
2022-12-27T01:33:27.905Z,89.19
2022-12-27T01:34:50.263Z,89.45
2022-12-27T01:36:23.564Z,89.48
2022-12-27T01:37:45.323Z,89.52
2022-12-27T01:39:08.518Z,89.18
2022-12-27T01:40:30.561Z,89.44
2022-12-27T01:42:11.269Z,88.93
2022-12-27T01:43:39.471Z,90.01
2022-12-27T01:45:02.156Z,89.24
2022-12-27T01:46:24.035Z,89.34
2022-12-27T01:48:04.278Z,89.60
2022-12-27T01:49:25.895Z,89.98
2022-12-27T01:50:57.443Z,89.65
2022-12-27T01:52:19.240Z,89.88
2022-12-27T01:53:46.229Z,89.21
2022-12-27T01:55:18.921Z,89.43
2022-12-27T01:56:40.840Z,89.46
2022-12-27T01:58:37.829Z,89.87
2022-12-27T01:59:59.709Z,89.53
2022-12-27T02:01:29.282Z,90.10
2022-12-27T02:02:52.845Z,90.15
2022-12-27T02:04:18.847Z,89.25
2022-12-27T02:05:42.362Z,89.62
2022-12-27T02:07:06.435Z,89.88
2022-12-27T02:08:46.594Z,89.50
2022-12-27T02:10:08.576Z,89.87
2022-12-27T02:11:52.000Z,89.53
2022-12-27T02:13:14.125Z,90.16
2022-12-27T02:14:44.703Z,89.77
2022-12-27T02:16:18.767Z,89.66
2022-12-27T02:17:40.610Z,90.22
2022-12-27T02:19:02.772Z,90.00
2022-12-27T02:20:27.088Z,90.43
2022-12-27T02:22:09.063Z,90.44
2022-12-27T02:24:03.675Z,89.86
2022-12-27T02:25:53.288Z,89.61
2022-12-27T02:27:24.612Z,88.83
2022-12-27T02:29:04.886Z,89.21
2022-12-27T02:30:27.788Z,88.84
2022-12-27T02:32:06.480Z,89.17
2022-12-27T02:33:32.111Z,88.73
2022-12-27T02:35:33.798Z,89.42
2022-12-27T02:37:03.080Z,88.87
2022-12-27T02:38:30.143Z,89.35
2022-12-27T02:39:53.431Z,89.49
2022-12-27T02:41:34.660Z,89.56
2022-12-27T02:43:16.406Z,89.63
2022-12-27T02:44:56.873Z,90.76
2022-12-27T02:46:49.501Z,90.26
2022-12-27T02:48:33.778Z,90.10
2022-12-27T02:50:13.681Z,89.87
2022-12-27T02:52:04.718Z,89.71
2022-12-27T02:53:59.631Z,89.98
2022-12-27T02:55:39.772Z,89.87
2022-12-27T02:57:43.241Z,89.80
2022-12-27T02:59:32.508Z,89.79
2022-12-27T03:01:24.773Z,90.02
2022-12-27T03:03:20.271Z,89.82
2022-12-27T03:04:59.003Z,90.25
2022-12-27T03:06:42.838Z,90.12
2022-12-27T03:08:31.335Z,90.10
2022-12-27T03:10:32.215Z,90.21
2022-12-27T03:12:13.695Z,89.93
2022-12-27T03:14:12.647Z,89.93
2022-12-27T03:15:55.762Z,89.80
2022-12-27T03:17:44.350Z,90.34
2022-12-27T03:19:13.034Z,90.21
2022-12-27T03:20:57.176Z,90.38
2022-12-27T03:22:39.460Z,90.47
2022-12-27T03:24:22.177Z,90.34
2022-12-27T03:25:46.244Z,90.54
2022-12-27T03:27:36.199Z,90.05
2022-12-27T03:29:17.305Z,89.94
2022-12-27T03:30:59.132Z,90.21
2022-12-27T03:32:41.417Z,90.48
2022-12-27T03:34:28.215Z,89.57
2022-12-27T03:36:28.922Z,89.92
2022-12-27T03:38:03.951Z,89.76
2022-12-27T03:39:36.415Z,89.67
2022-12-27T03:41:20.200Z,90.11
2022-12-27T03:43:08.436Z,90.27
2022-12-27T03:44:30.364Z,90.16
2022-12-27T03:46:14.952Z,90.40
2022-12-27T03:47:51.746Z,89.02
2022-12-27T03:49:59.204Z,89.20
2022-12-27T03:51:25.145Z,89.60
2022-12-27T03:52:58.936Z,89.30
2022-12-27T03:54:30.944Z,89.95
2022-12-27T03:55:53.692Z,89.56
2022-12-27T03:57:22.426Z,89.92
2022-12-27T03:58:44.504Z,89.94
2022-12-27T04:00:07.485Z,89.77
2022-12-27T04:01:35.044Z,89.56
2022-12-27T04:02:57.315Z,89.76
2022-12-27T04:04:19.136Z,89.92
2022-12-27T04:05:40.948Z,89.94
2022-12-27T04:07:03.668Z,89.97
2022-12-27T04:08:43.760Z,90.21
2022-12-27T04:10:24.287Z,90.38
2022-12-27T04:12:04.733Z,90.11
2022-12-27T04:13:45.015Z,90.02
2022-12-27T04:15:25.162Z,90.18
2022-12-27T04:17:05.636Z,89.81
2022-12-27T04:18:45.638Z,90.07
2022-12-27T04:20:26.459Z,90.44
2022-12-27T04:22:06.501Z,90.49
2022-12-27T04:23:46.773Z,91.04
2022-12-27T04:25:27.600Z,90.92
2022-12-27T04:27:08.931Z,91.67
2022-12-27T04:28:48.909Z,91.33
2022-12-27T04:30:29.784Z,90.83
2022-12-27T04:32:10.315Z,90.21
2022-12-27T04:33:50.530Z,89.81
2022-12-27T04:35:12.511Z,89.01
2022-12-27T04:36:34.368Z,89.50
2022-12-27T04:37:56.446Z,89.94
2022-12-27T04:39:18.539Z,90.21
2022-12-27T04:40:58.686Z,90.12
2022-12-27T04:42:38.718Z,90.46
2022-12-27T04:44:18.820Z,89.77
2022-12-27T04:45:59.031Z,90.02
2022-12-27T04:47:42.283Z,90.12
2022-12-27T04:49:23.029Z,90.00
2022-12-27T04:51:03.389Z,89.49
2022-12-27T04:52:44.006Z,89.42
2022-12-27T04:54:38.399Z,89.34
2022-12-27T04:56:00.479Z,89.71
2022-12-27T04:57:22.395Z,90.25
2022-12-27T04:59:04.287Z,90.46
2022-12-27T05:00:48.290Z,90.32
2022-12-27T05:02:10.505Z,89.30
2022-12-27T05:03:32.292Z,89.25
2022-12-27T05:04:54.058Z,89.74
2022-12-27T05:06:16.609Z,89.89
2022-12-27T05:07:57.410Z,90.18
2022-12-27T05:09:39.433Z,90.42
2022-12-27T05:11:19.892Z,90.43
2022-12-27T05:13:00.587Z,90.79
2022-12-27T05:14:22.289Z,90.76
2022-12-27T05:15:44.172Z,90.44
2022-12-27T05:17:06.736Z,90.88
2022-12-27T05:18:28.746Z,91.00
2022-12-27T05:19:50.556Z,91.22
2022-12-27T05:21:12.389Z,91.53
2022-12-27T05:22:52.755Z,91.57
2022-12-27T05:24:33.142Z,91.43
2022-12-27T05:25:54.849Z,91.80
2022-12-27T05:27:17.527Z,91.20
2022-12-27T05:28:39.122Z,90.85
2022-12-27T05:30:00.952Z,90.89
2022-12-27T05:31:24.227Z,90.81
2022-12-27T05:32:46.224Z,91.02
2022-12-27T05:34:08.048Z,91.09
2022-12-27T05:35:29.777Z,91.08
2022-12-27T05:36:54.548Z,91.42
2022-12-27T05:38:16.467Z,91.25
2022-12-27T05:39:38.371Z,90.61
2022-12-27T05:41:02.112Z,90.93
2022-12-27T05:42:23.740Z,91.03
2022-12-27T05:43:45.706Z,91.03
2022-12-27T05:45:08.156Z,91.28
2022-12-27T05:46:30.007Z,91.47
2022-12-27T05:47:53.136Z,91.41
2022-12-27T05:49:15.101Z,91.68
2022-12-27T05:50:37.008Z,91.59
2022-12-27T05:52:07.380Z,91.98
2022-12-27T05:53:29.057Z,91.60
2022-12-27T05:54:51.030Z,91.63
2022-12-27T05:56:16.227Z,91.40
2022-12-27T05:57:38.032Z,91.46
2022-12-27T05:58:59.844Z,91.48
2022-12-27T06:00:22.716Z,91.44
2022-12-27T06:01:44.779Z,91.34
2022-12-27T06:03:06.560Z,91.71
2022-12-27T06:04:28.924Z,91.41
2022-12-27T06:05:50.587Z,91.53
2022-12-27T06:07:13.763Z,91.76
2022-12-27T06:08:36.171Z,91.74
2022-12-27T06:09:58.086Z,91.40
2022-12-27T06:11:20.756Z,91.45
2022-12-27T06:12:42.645Z,90.39
2022-12-27T06:14:04.212Z,88.74
2022-12-27T06:15:26.354Z,88.53
2022-12-27T06:16:48.112Z,88.81
2022-12-27T06:18:09.838Z,89.09
2022-12-27T06:19:31.626Z,89.88
2022-12-27T06:20:53.840Z,90.16
2022-12-27T06:22:15.864Z,90.31
2022-12-27T06:23:40.771Z,90.89
2022-12-27T06:25:02.871Z,91.41
2022-12-27T06:26:27.911Z,89.21
2022-12-27T06:27:49.578Z,88.64
2022-12-27T06:29:13.050Z,87.97
2022-12-27T06:30:36.470Z,87.55
2022-12-27T06:31:58.545Z,86.58
2022-12-27T06:33:20.382Z,86.88
2022-12-27T06:34:42.456Z,87.02
2022-12-27T06:36:09.328Z,86.67
2022-12-27T06:37:31.530Z,87.15
2022-12-27T06:38:53.262Z,87.67
2022-12-27T06:40:15.012Z,86.99
2022-12-27T06:41:36.646Z,87.25
2022-12-27T06:42:58.606Z,87.39
2022-12-27T06:44:20.243Z,88.25
2022-12-27T06:45:42.165Z,88.36
2022-12-27T06:47:04.583Z,88.79
2022-12-27T06:48:27.109Z,89.06
2022-12-27T06:49:48.870Z,88.20
2022-12-27T06:51:13.080Z,87.43
2022-12-27T06:52:34.687Z,87.76
2022-12-27T06:53:56.647Z,87.00
2022-12-27T06:55:18.518Z,87.15
2022-12-27T06:56:40.506Z,87.44
2022-12-27T06:58:02.356Z,87.79
2022-12-27T06:59:25.510Z,89.15
2022-12-27T07:00:47.477Z,87.71
2022-12-27T07:02:11.080Z,84.34
2022-12-27T07:03:32.865Z,84.51
2022-12-27T07:04:55.084Z,85.02
2022-12-27T07:06:17.154Z,85.12
2022-12-27T07:07:38.858Z,85.83
2022-12-27T07:09:01.810Z,87.29
2022-12-27T07:10:23.759Z,88.81
2022-12-27T07:11:45.685Z,88.74
2022-12-27T07:13:07.315Z,88.99
2022-12-27T07:14:29.202Z,87.43
2022-12-27T07:15:51.309Z,87.77
2022-12-27T07:17:13.192Z,85.98
2022-12-27T07:18:35.654Z,85.71
2022-12-27T07:19:58.318Z,84.51
2022-12-27T07:21:23.297Z,83.98
2022-12-27T07:22:45.148Z,82.62
2022-12-27T07:24:07.355Z,81.58
2022-12-27T07:25:29.224Z,80.31
2022-12-27T07:26:51.295Z,79.26
2022-12-27T07:28:13.047Z,78.20
2022-12-27T07:29:36.367Z,77.60
2022-12-27T07:31:05.803Z,76.69
2022-12-27T07:32:27.404Z,75.59
2022-12-27T07:33:49.261Z,75.46
2022-12-27T07:35:11.218Z,74.51
2022-12-27T07:36:37.184Z,73.83
2022-12-27T07:37:59.307Z,71.62
2022-12-27T07:39:20.872Z,71.17
2022-12-27T07:40:42.793Z,70.69
2022-12-27T07:42:08.080Z,70.14
2022-12-27T07:43:36.442Z,69.49
2022-12-27T07:44:58.422Z,69.29
2022-12-27T07:46:22.495Z,68.40
2022-12-27T07:47:44.123Z,67.92
2022-12-27T07:49:05.848Z,67.93
2022-12-27T07:50:27.488Z,67.31
2022-12-27T07:51:49.457Z,66.38
2022-12-27T07:53:11.367Z,65.55
2022-12-27T07:54:33.302Z,64.51
2022-12-27T07:55:54.878Z,64.41
2022-12-27T07:57:16.588Z,64.08
2022-12-27T07:58:44.176Z,63.68
2022-12-27T08:00:07.179Z,63.52
2022-12-27T08:01:54.677Z,62.50
2022-12-27T08:03:18.519Z,62.19
2022-12-27T08:04:40.557Z,60.94
2022-12-27T08:06:02.506Z,59.10
2022-12-27T08:07:26.232Z,60.24
2022-12-27T08:08:49.042Z,59.33
2022-12-27T08:10:11.270Z,58.58
2022-12-27T08:11:33.239Z,58.86
2022-12-27T08:12:54.909Z,57.49
2022-12-27T08:14:16.920Z,57.56
2022-12-27T08:15:41.678Z,57.76
2022-12-27T08:17:07.008Z,57.83
2022-12-27T08:18:29.063Z,57.29
2022-12-27T08:19:56.740Z,56.84
2022-12-27T08:21:19.251Z,57.15
2022-12-27T08:22:41.493Z,55.79
2022-12-27T08:24:03.458Z,55.14
2022-12-27T08:25:25.563Z,55.03
2022-12-27T08:26:47.392Z,54.53
2022-12-27T08:28:13.476Z,52.33
2022-12-27T08:29:35.554Z,53.36
2022-12-27T08:30:58.054Z,51.58
2022-12-27T08:32:19.800Z,51.03
2022-12-27T08:33:42.151Z,49.37
2022-12-27T08:35:25.016Z,46.94
2022-12-27T08:36:55.303Z,37.85
2022-12-27T08:38:17.670Z,29.03
2022-12-27T08:39:39.619Z,24.81
2022-12-27T08:41:01.726Z,22.03
2022-12-27T08:42:24.834Z,20.21
2022-12-27T08:43:46.484Z,18.48
2022-12-27T08:45:08.902Z,17.24
2022-12-27T08:46:31.294Z,16.74
2022-12-27T08:47:53.363Z,16.67
2022-12-27T08:49:17.738Z,17.97
2022-12-27T08:50:39.659Z,16.13
2022-12-27T08:52:01.531Z,15.70
2022-12-27T08:53:23.342Z,15.20
2022-12-27T08:54:45.217Z,14.82
2022-12-27T08:56:07.518Z,15.53
2022-12-27T08:57:29.319Z,14.13
2022-12-27T08:58:51.549Z,13.55
2022-12-27T09:00:13.843Z,13.29
2022-12-27T09:01:35.738Z,13.69
2022-12-27T09:02:58.105Z,13.16
2022-12-27T09:04:19.913Z,12.36
2022-12-27T09:05:42.257Z,12.18
2022-12-27T09:07:05.225Z,12.32
2022-12-27T09:08:26.994Z,12.68
2022-12-27T09:09:48.797Z,11.52
2022-12-27T09:11:13.943Z,10.79
2022-12-27T09:12:35.860Z,10.84
2022-12-27T09:14:00.746Z,10.31
2022-12-27T09:15:22.424Z,11.39
2022-12-27T09:16:44.280Z,10.42
2022-12-27T09:18:07.340Z,10.84
2022-12-27T09:19:28.875Z,15.32
2022-12-27T09:20:50.787Z,21.10
2022-12-27T09:22:12.795Z,25.94
2022-12-27T09:23:34.904Z,28.44
2022-12-27T09:24:56.840Z,31.21
2022-12-27T09:26:21.013Z,33.92
2022-12-27T09:27:42.770Z,35.31
2022-12-27T09:29:04.628Z,36.69
2022-12-27T09:30:27.216Z,38.70
2022-12-27T09:31:48.905Z,40.10
2022-12-27T09:33:10.743Z,40.93
2022-12-27T09:34:32.688Z,42.05
2022-12-27T09:36:00.362Z,43.54
2022-12-27T09:37:22.080Z,44.30
2022-12-27T09:38:44.468Z,45.23
2022-12-27T09:40:07.234Z,45.75
2022-12-27T09:42:25.973Z,47.09
2022-12-27T09:43:23.908Z,47.33
2022-12-27T09:44:55.155Z,47.89
2022-12-27T09:46:28.831Z,49.20
2022-12-27T09:47:58.628Z,50.88
2022-12-27T09:49:54.649Z,50.82
2022-12-27T09:51:25.506Z,50.98
2022-12-27T09:52:55.903Z,52.48
2022-12-27T09:54:25.583Z,51.93
2022-12-27T09:55:57.498Z,53.43
2022-12-27T09:57:26.564Z,52.35
2022-12-27T09:58:51.843Z,53.09
2022-12-27T10:00:34.500Z,53.25
2022-12-27T10:01:57.681Z,55.14
2022-12-27T10:03:23.890Z,54.84
2022-12-27T10:05:18.534Z,55.08
2022-12-27T10:06:45.919Z,54.96
2022-12-27T10:08:27.438Z,55.93
2022-12-27T10:10:05.124Z,55.33
2022-12-27T10:11:49.716Z,56.40
2022-12-27T10:13:11.572Z,57.17
2022-12-27T10:15:11.000Z,57.41
2022-12-27T10:16:37.379Z,58.11
2022-12-27T10:18:07.766Z,57.65
2022-12-27T10:19:41.745Z,57.70
2022-12-27T10:21:21.885Z,58.84
2022-12-27T10:23:06.167Z,58.29
2022-12-27T10:24:57.174Z,59.27
2022-12-27T10:26:20.801Z,58.81
2022-12-27T10:27:42.718Z,59.17
2022-12-27T10:29:25.414Z,59.19
2022-12-27T10:30:47.264Z,58.82
2022-12-27T10:32:12.643Z,59.29
2022-12-27T10:33:35.747Z,59.36
2022-12-27T10:35:02.023Z,59.56
2022-12-27T10:36:27.328Z,60.81
2022-12-27T10:37:50.051Z,61.07
2022-12-27T10:39:18.113Z,59.81
2022-12-27T10:40:52.628Z,60.63
2022-12-27T10:42:41.951Z,60.50
2022-12-27T10:44:10.459Z,60.73
2022-12-27T10:45:39.199Z,62.12
2022-12-27T10:47:01.858Z,61.60
2022-12-27T10:48:36.411Z,61.83
2022-12-27T10:50:14.032Z,60.55
2022-12-27T10:51:38.444Z,60.71
2022-12-27T10:53:00.434Z,63.22
2022-12-27T10:54:28.950Z,62.05
2022-12-27T10:55:50.695Z,61.80
2022-12-27T10:57:28.875Z,61.62
2022-12-27T10:59:12.388Z,61.33
2022-12-27T11:00:34.258Z,61.79
2022-12-27T11:02:02.717Z,61.99
2022-12-27T11:03:26.360Z,61.71
2022-12-27T11:05:00.053Z,62.60
2022-12-27T11:06:24.877Z,62.73
2022-12-27T11:07:46.624Z,62.45
2022-12-27T11:09:32.581Z,62.22
2022-12-27T11:11:17.208Z,62.02
2022-12-27T11:12:39.209Z,63.10
2022-12-27T11:14:12.112Z,62.38
2022-12-27T11:15:40.361Z,62.98
2022-12-27T11:17:02.011Z,62.23
2022-12-27T11:18:23.661Z,64.41
2022-12-27T11:19:47.830Z,63.54
2022-12-27T11:21:22.493Z,62.68
2022-12-27T11:22:49.740Z,63.83
2022-12-27T11:24:17.903Z,63.11
2022-12-27T11:26:02.958Z,63.48
2022-12-27T11:27:27.856Z,62.85
2022-12-27T11:29:02.012Z,65.87
2022-12-27T11:30:38.801Z,64.31
2022-12-27T11:32:07.595Z,63.50
2022-12-27T11:33:36.106Z,63.67
2022-12-27T11:34:58.185Z,64.83
2022-12-27T11:36:35.742Z,63.41
2022-12-27T11:37:57.795Z,64.29
2022-12-27T11:39:43.114Z,64.85
2022-12-27T11:41:10.914Z,64.33
2022-12-27T11:42:45.900Z,65.31
2022-12-27T11:44:32.421Z,63.07
2022-12-27T11:45:56.419Z,65.75
2022-12-27T11:47:54.687Z,64.82
2022-12-27T11:49:32.043Z,64.38
2022-12-27T11:51:13.495Z,64.85
2022-12-27T11:53:03.118Z,64.03
2022-12-27T11:54:40.956Z,64.57
2022-12-27T11:56:15.068Z,63.93
2022-12-27T11:58:07.850Z,63.52
2022-12-27T11:59:47.517Z,64.58
2022-12-27T12:01:51.049Z,64.18
2022-12-27T12:03:34.530Z,65.77
2022-12-27T12:05:27.225Z,63.92
2022-12-27T12:07:04.347Z,64.84
2022-12-27T12:08:37.889Z,63.29
2022-12-27T12:10:17.768Z,62.14
2022-12-27T12:11:58.133Z,62.71
2022-12-27T12:13:38.775Z,61.99
2022-12-27T12:15:12.394Z,63.60
2022-12-27T12:17:16.319Z,63.65
2022-12-27T12:18:40.916Z,63.30
2022-12-27T12:20:36.446Z,62.11
2022-12-27T12:22:43.286Z,63.96
2022-12-27T12:24:23.176Z,63.15
2022-12-27T12:25:50.970Z,64.37
2022-12-27T12:27:40.479Z,63.03
2022-12-27T12:29:17.525Z,64.55
2022-12-27T12:30:56.701Z,63.65
2022-12-27T12:32:52.635Z,64.54
2022-12-27T12:34:51.324Z,63.88
2022-12-27T12:36:22.059Z,63.44
2022-12-27T12:37:49.674Z,62.85
2022-12-27T12:39:34.513Z,63.12
2022-12-27T12:41:14.912Z,64.04
2022-12-27T12:42:45.547Z,65.22
2022-12-27T12:44:41.053Z,64.32
2022-12-27T12:46:21.595Z,64.31
2022-12-27T12:47:49.539Z,63.76
2022-12-27T12:49:30.674Z,63.40
2022-12-27T12:51:08.144Z,63.67
2022-12-27T12:53:06.513Z,63.64
2022-12-27T12:54:43.273Z,63.53
2022-12-27T12:56:14.035Z,64.05
2022-12-27T12:58:05.861Z,63.29
2022-12-27T12:59:39.206Z,64.87
2022-12-27T13:01:19.291Z,64.74
2022-12-27T13:03:36.402Z,64.56
2022-12-27T13:05:25.338Z,63.57
2022-12-27T13:07:25.165Z,64.75
2022-12-27T13:09:18.112Z,66.97
2022-12-27T13:11:22.916Z,65.41
2022-12-27T13:12:59.726Z,65.12
2022-12-27T13:14:42.625Z,63.92
2022-12-27T13:16:23.362Z,65.67
2022-12-27T13:18:18.648Z,65.05
2022-12-27T13:20:16.601Z,63.54
2022-12-27T13:21:59.636Z,64.94
2022-12-27T13:23:42.663Z,64.63
2022-12-27T13:25:07.155Z,65.66
2022-12-27T13:26:37.266Z,65.34
2022-12-27T13:28:04.869Z,63.79
2022-12-27T13:29:45.106Z,63.68
2022-12-27T13:31:24.733Z,64.92
2022-12-27T13:32:46.349Z,64.59
2022-12-27T13:34:26.091Z,65.62
2022-12-27T13:36:04.001Z,65.97
2022-12-27T13:37:36.550Z,64.12
2022-12-27T13:39:28.057Z,66.09
2022-12-27T13:41:13.243Z,63.61
2022-12-27T13:42:49.536Z,65.80
2022-12-27T13:45:01.657Z,63.88
2022-12-27T13:46:42.925Z,65.32
2022-12-27T13:48:26.276Z,65.81
2022-12-27T13:50:45.689Z,65.74
2022-12-27T13:52:38.553Z,66.30
2022-12-27T13:54:17.770Z,65.55
2022-12-27T13:56:43.512Z,65.55
2022-12-27T13:57:57.883Z,65.56
2022-12-27T13:59:36.797Z,65.58
2022-12-27T14:01:26.561Z,65.23
2022-12-27T14:03:22.640Z,65.91
2022-12-27T14:05:01.440Z,65.58
2022-12-27T14:06:40.760Z,64.88
2022-12-27T14:08:15.809Z,65.62
2022-12-27T14:10:07.883Z,65.54
2022-12-27T14:11:52.696Z,65.83
2022-12-27T14:13:26.733Z,65.41
2022-12-27T14:14:49.312Z,65.70
2022-12-27T14:16:38.234Z,65.53
2022-12-27T14:18:42.152Z,65.46
2022-12-27T14:20:21.683Z,65.83
2022-12-27T14:21:48.980Z,66.54
2022-12-27T14:23:25.760Z,66.65
2022-12-27T14:24:53.822Z,65.71
2022-12-27T14:26:37.601Z,65.66
2022-12-27T14:28:36.078Z,66.31
2022-12-27T14:30:09.765Z,65.61
2022-12-27T14:32:14.806Z,66.10
2022-12-27T14:33:54.446Z,66.25
2022-12-27T14:35:19.946Z,65.36
2022-12-27T14:37:06.603Z,66.16
2022-12-27T14:38:43.105Z,67.21
2022-12-27T14:40:35.307Z,67.09
2022-12-27T14:42:43.712Z,67.13
2022-12-27T14:44:36.209Z,66.03
2022-12-27T14:46:35.505Z,67.59
2022-12-27T14:48:48.469Z,66.92
2022-12-27T14:50:25.575Z,66.87
2022-12-27T14:52:02.371Z,67.87
2022-12-27T14:53:38.350Z,66.58
2022-12-27T14:55:22.027Z,66.62
2022-12-27T14:57:13.565Z,65.46
2022-12-27T14:59:05.849Z,66.27
2022-12-27T15:00:32.525Z,66.72
2022-12-27T15:02:06.087Z,67.19
2022-12-27T15:03:41.456Z,66.77
2022-12-27T15:05:22.384Z,66.67
2022-12-27T15:07:05.732Z,67.20
2022-12-27T15:08:50.504Z,65.83
2022-12-27T15:10:12.008Z,65.53
2022-12-27T15:12:04.817Z,67.05
2022-12-27T15:14:02.211Z,66.59
2022-12-27T15:15:56.389Z,66.30
2022-12-27T15:17:53.426Z,67.43
2022-12-27T15:19:34.161Z,66.04
2022-12-27T15:20:58.829Z,66.20
2022-12-27T15:22:35.606Z,65.37
2022-12-27T15:24:21.593Z,66.64
2022-12-27T15:26:20.469Z,66.91
2022-12-27T15:27:42.215Z,66.93
2022-12-27T15:29:09.025Z,66.84
2022-12-27T15:30:57.151Z,68.81
2022-12-27T15:32:52.821Z,67.84
2022-12-27T15:34:36.182Z,67.39
2022-12-27T15:36:09.397Z,67.06
2022-12-27T15:38:04.634Z,68.50
2022-12-27T15:39:35.904Z,66.90
2022-12-27T15:41:28.428Z,68.53
2022-12-27T15:43:22.362Z,68.96
2022-12-27T15:45:04.098Z,67.59
2022-12-27T15:47:10.039Z,69.48
2022-12-27T15:48:56.510Z,69.97
2022-12-27T15:50:42.823Z,69.18
2022-12-27T15:52:24.472Z,71.40
2022-12-27T15:54:27.433Z,69.73
2022-12-27T15:56:13.140Z,70.52
2022-12-27T15:58:03.575Z,69.32
2022-12-27T15:59:46.793Z,70.64
2022-12-27T16:01:25.437Z,70.18
2022-12-27T16:02:48.092Z,68.36
2022-12-27T16:04:56.797Z,68.09
2022-12-27T16:06:34.160Z,69.78
2022-12-27T16:07:59.036Z,69.87
2022-12-27T16:09:27.663Z,69.73
2022-12-27T16:10:50.767Z,69.03
2022-12-27T16:12:31.041Z,69.83
2022-12-27T16:14:23.468Z,71.09
2022-12-27T16:15:47.808Z,71.21
2022-12-27T16:17:27.649Z,70.72
2022-12-27T16:19:10.401Z,70.91
2022-12-27T16:20:33.247Z,70.02
2022-12-27T16:21:55.283Z,70.25
2022-12-27T16:23:24.377Z,70.19
2022-12-27T16:24:46.166Z,69.63
2022-12-27T16:26:16.194Z,70.07
2022-12-27T16:27:38.045Z,70.11
2022-12-27T16:29:28.453Z,71.27
2022-12-27T16:31:02.025Z,71.26
2022-12-27T16:32:26.709Z,71.09
2022-12-27T16:33:50.289Z,70.09
2022-12-27T16:35:15.868Z,68.99
2022-12-27T16:36:47.686Z,69.69
2022-12-27T16:38:22.515Z,70.16
2022-12-27T16:40:16.281Z,68.27
2022-12-27T16:41:49.844Z,68.46
2022-12-27T16:43:11.303Z,68.41
2022-12-27T16:44:53.794Z,69.90
2022-12-27T16:46:31.124Z,70.33
2022-12-27T16:47:58.651Z,71.61
2022-12-27T16:50:05.601Z,70.97
2022-12-27T16:51:50.981Z,69.76
2022-12-27T16:53:41.219Z,69.81
2022-12-27T16:55:21.774Z,70.07
2022-12-27T16:56:48.090Z,70.26
2022-12-27T16:58:25.146Z,67.90
2022-12-27T17:00:35.362Z,70.38
2022-12-27T17:01:57.890Z,68.94
2022-12-27T17:03:35.429Z,70.11
2022-12-27T17:05:00.782Z,70.51
2022-12-27T17:06:31.911Z,70.80
2022-12-27T17:07:55.898Z,71.26
2022-12-27T17:09:20.859Z,71.71
2022-12-27T17:10:51.435Z,71.28
2022-12-27T17:12:18.556Z,72.23
2022-12-27T17:13:51.144Z,71.34
2022-12-27T17:15:13.722Z,72.26
2022-12-27T17:16:57.363Z,72.92
2022-12-27T17:18:30.832Z,71.55
2022-12-27T17:20:00.903Z,71.79
2022-12-27T17:21:30.522Z,71.68
2022-12-27T17:22:57.074Z,72.29
2022-12-27T17:24:22.228Z,72.01
2022-12-27T17:25:52.845Z,72.00
2022-12-27T17:28:07.977Z,72.87
2022-12-27T17:29:45.795Z,72.95
2022-12-27T17:31:34.699Z,72.81
2022-12-27T17:33:14.738Z,72.02
2022-12-27T17:35:02.399Z,71.23
2022-12-27T17:36:27.399Z,71.55
2022-12-27T17:38:01.220Z,70.12
2022-12-27T17:39:40.713Z,70.22
2022-12-27T17:41:49.311Z,69.98
2022-12-27T17:43:47.602Z,69.52
2022-12-27T17:45:31.285Z,69.69
2022-12-27T17:47:27.167Z,69.35
2022-12-27T17:48:52.416Z,69.72
2022-12-27T17:50:18.365Z,69.75
2022-12-27T17:52:03.324Z,70.17
2022-12-27T17:53:44.468Z,70.07
2022-12-27T17:55:38.623Z,70.09
2022-12-27T17:57:19.712Z,70.26
2022-12-27T17:58:41.947Z,70.58
2022-12-27T18:00:06.642Z,71.44
2022-12-27T18:01:37.066Z,70.88
2022-12-27T18:03:02.591Z,70.54
2022-12-27T18:04:33.540Z,70.88
2022-12-27T18:05:55.504Z,71.05
2022-12-27T18:07:25.045Z,71.12
2022-12-27T18:08:49.352Z,70.75
2022-12-27T18:10:28.034Z,71.54
2022-12-27T18:11:49.884Z,72.23
2022-12-27T18:13:18.676Z,72.98
2022-12-27T18:14:40.721Z,72.27
2022-12-27T18:16:24.568Z,71.98
2022-12-27T18:17:49.787Z,73.81
2022-12-27T18:19:19.109Z,73.04
2022-12-27T18:20:41.803Z,73.34
2022-12-27T18:22:04.000Z,72.86
2022-12-27T18:23:26.132Z,72.97
2022-12-27T18:24:48.298Z,73.54
2022-12-27T18:26:15.516Z,73.36
2022-12-27T18:27:37.417Z,72.58
2022-12-27T18:29:00.000Z,72.29
2022-12-27T18:30:22.021Z,71.31
2022-12-27T18:31:50.624Z,71.12
2022-12-27T18:33:15.363Z,70.63
2022-12-27T18:34:48.073Z,72.74
2022-12-27T18:36:21.606Z,71.37
2022-12-27T18:37:43.438Z,71.12
2022-12-27T18:39:17.355Z,70.00
2022-12-27T18:40:38.959Z,70.17
2022-12-27T18:42:05.839Z,70.46
2022-12-27T18:43:27.801Z,71.16
2022-12-27T18:44:54.199Z,71.43
2022-12-27T18:46:39.485Z,71.32
2022-12-27T18:48:09.346Z,71.56
2022-12-27T18:49:37.032Z,72.31
2022-12-27T18:50:59.274Z,73.00
2022-12-27T18:52:32.532Z,72.07
2022-12-27T18:53:54.552Z,72.26
2022-12-27T18:55:24.947Z,72.48
2022-12-27T18:56:53.372Z,72.39
2022-12-27T18:58:20.949Z,71.95
2022-12-27T18:59:43.096Z,71.97
2022-12-27T19:01:26.097Z,72.38
2022-12-27T19:02:49.436Z,72.82
2022-12-27T19:04:17.279Z,73.13
2022-12-27T19:05:39.838Z,73.19
2022-12-27T19:07:14.083Z,72.77
2022-12-27T19:08:50.069Z,73.24
2022-12-27T19:10:20.593Z,73.16
2022-12-27T19:11:49.486Z,73.13
2022-12-27T19:13:31.375Z,73.20
2022-12-27T19:14:54.139Z,73.34
2022-12-27T19:16:31.451Z,73.83
2022-12-27T19:18:01.985Z,73.20
2022-12-27T19:19:28.141Z,73.85
2022-12-27T19:20:55.766Z,73.83
2022-12-27T19:22:48.807Z,73.72
2022-12-27T19:24:21.374Z,74.13
2022-12-27T19:25:43.877Z,73.94
2022-12-27T19:27:22.983Z,74.19
2022-12-27T19:29:06.626Z,74.33
2022-12-27T19:30:35.793Z,74.34
2022-12-27T19:32:02.225Z,74.85
2022-12-27T19:33:30.921Z,74.78
2022-12-27T19:34:56.438Z,74.88
2022-12-27T19:36:26.004Z,74.81
2022-12-27T19:37:47.692Z,74.61
2022-12-27T19:39:19.879Z,74.77
2022-12-27T19:40:41.637Z,75.14
2022-12-27T19:42:09.638Z,75.27
2022-12-27T19:43:44.851Z,75.39
2022-12-27T19:45:07.230Z,74.95
2022-12-27T19:46:31.287Z,75.26